createdAt,value
2022-09-01T00:01:45.237Z,95338.75
2022-09-01T00:04:32.195Z,95337.09
2022-09-01T00:07:18.232Z,95327.25
2022-09-01T00:10:07.584Z,95314.41
2022-09-01T00:12:53.426Z,95323.97
2022-09-01T00:15:39.907Z,95322.78
2022-09-01T00:18:25.984Z,95337.00
2022-09-01T00:21:13.413Z,95333.47
2022-09-01T00:24:00.443Z,95334.84
2022-09-01T00:26:46.543Z,95337.56
2022-09-01T00:29:32.737Z,95327.47
2022-09-01T00:32:18.945Z,95326.91
2022-09-01T00:35:05.568Z,95326.09
2022-09-01T00:37:51.348Z,95332.13
2022-09-01T00:40:38.475Z,95326.66
2022-09-01T00:43:44.805Z,95341.63
2022-09-01T00:46:36.493Z,95344.34
2022-09-01T00:49:40.189Z,95350.34
2022-09-01T00:52:34.553Z,95342.44
2022-09-01T00:55:39.308Z,95342.13
2022-09-01T00:58:26.149Z,95318.69
2022-09-01T01:01:12.824Z,95334.81
2022-09-01T01:04:02.536Z,95324.41
2022-09-01T01:06:58.756Z,95327.66
2022-09-01T01:09:45.701Z,95323.88
2022-09-01T01:12:33.252Z,95327.97
2022-09-01T01:15:20.130Z,95332.91
2022-09-01T01:18:06.429Z,95327.16
2022-09-01T01:21:23.648Z,95318.94
2022-09-01T01:24:23.636Z,95335.88
2022-09-01T01:27:10.578Z,95330.38
2022-09-01T01:29:57.581Z,95337.50
2022-09-01T01:32:47.901Z,95329.03
2022-09-01T01:35:34.969Z,95325.22
2022-09-01T01:38:23.042Z,95317.31
2022-09-01T01:41:11.865Z,95319.25
2022-09-01T01:43:59.607Z,95323.88
2022-09-01T01:46:52.669Z,95323.03
2022-09-01T01:49:43.800Z,95325.41
2022-09-01T01:52:30.120Z,95323.88
2022-09-01T01:55:19.425Z,95311.84
2022-09-01T01:58:05.594Z,95320.28
2022-09-01T02:00:54.943Z,95324.94
2022-09-01T02:03:42.027Z,95325.22
2022-09-01T02:06:28.312Z,95334.78
2022-09-01T02:09:18.488Z,95333.94
2022-09-01T02:12:04.672Z,95316.22
2022-09-01T02:14:55.220Z,95327.13
2022-09-01T02:17:43.289Z,95320.03
2022-09-01T02:20:29.649Z,95318.38
2022-09-01T02:23:23.477Z,95319.22
2022-09-01T02:26:16.509Z,95305.81
2022-09-01T02:29:09.156Z,95316.44
2022-09-01T02:32:00.131Z,95309.66
2022-09-01T02:34:53.450Z,95310.72
2022-09-01T02:37:39.926Z,95308.56
2022-09-01T02:40:31.530Z,95307.44
2022-09-01T02:43:20.384Z,95324.09
2022-09-01T02:46:07.693Z,95303.03
2022-09-01T02:48:54.631Z,95311.00
2022-09-01T02:51:45.697Z,95310.75
2022-09-01T02:54:32.944Z,95315.13
2022-09-01T02:57:19.227Z,95314.00
2022-09-01T03:00:20.657Z,95299.78
2022-09-01T03:03:07.535Z,95320.53
2022-09-01T03:05:56.881Z,95319.16
2022-09-01T03:08:43.098Z,95312.88
2022-09-01T03:11:34.984Z,95316.94
2022-09-01T03:14:22.561Z,95307.66
2022-09-01T03:17:08.703Z,95314.47
2022-09-01T03:19:54.851Z,95310.91
2022-09-01T03:22:40.930Z,95313.91
2022-09-01T03:25:28.885Z,95325.31
2022-09-01T03:28:15.426Z,95322.59
2022-09-01T03:31:01.484Z,95299.94
2022-09-01T03:33:51.106Z,95307.03
2022-09-01T03:36:50.342Z,95300.75
2022-09-01T03:39:46.476Z,95321.25
2022-09-01T03:42:37.190Z,95330.50
2022-09-01T03:45:25.731Z,95329.41
2022-09-01T03:48:16.899Z,95318.19
2022-09-01T03:51:03.255Z,95307.28
2022-09-01T03:53:54.582Z,95327.75
2022-09-01T03:56:41.804Z,95324.16
2022-09-01T03:59:33.297Z,95307.25
2022-09-01T04:02:19.077Z,95306.44
2022-09-01T04:05:08.333Z,95326.34
2022-09-01T04:07:56.973Z,95318.16
2022-09-01T04:10:54.358Z,95325.22
2022-09-01T04:13:42.345Z,95329.06
2022-09-01T04:16:52.537Z,95332.03
2022-09-01T04:19:39.686Z,95321.91
2022-09-01T04:22:32.017Z,95335.56
2022-09-01T04:25:23.300Z,95333.06
2022-09-01T04:28:17.649Z,95330.63
2022-09-01T04:31:08.731Z,95339.56
2022-09-01T04:33:56.428Z,95339.47
2022-09-01T04:36:44.889Z,95331.09
2022-09-01T04:39:32.021Z,95340.38
2022-09-01T04:42:21.086Z,95338.75
2022-09-01T04:45:11.277Z,95346.66
2022-09-01T04:48:06.270Z,95340.38
2022-09-01T04:50:52.758Z,95324.25
2022-09-01T04:53:48.810Z,95331.88
2022-09-01T04:56:36.386Z,95322.34
2022-09-01T04:59:29.729Z,95327.25
2022-09-01T05:02:19.397Z,95313.06
2022-09-01T05:05:10.262Z,95321.81
2022-09-01T05:07:56.776Z,95311.94
2022-09-01T05:10:49.841Z,95296.44
2022-09-01T05:13:50.632Z,95307.63
2022-09-01T05:16:37.902Z,95299.97
2022-09-01T05:19:25.945Z,95296.47
2022-09-01T05:22:13.308Z,95301.66
2022-09-01T05:25:11.750Z,95297.88
2022-09-01T05:27:58.621Z,95308.50
2022-09-01T05:30:46.272Z,95289.66
2022-09-01T05:33:36.387Z,95309.59
2022-09-01T05:36:24.986Z,95295.72
2022-09-01T05:49:28.638Z,95302.22
2022-09-01T05:52:15.229Z,95287.88
2022-09-01T05:55:01.827Z,95296.56
2022-09-01T05:57:50.669Z,95309.78
2022-09-01T06:00:38.634Z,95307.22
2022-09-01T06:03:25.229Z,95300.81
2022-09-01T06:06:12.429Z,95306.09
2022-09-01T06:08:59.793Z,95305.81
2022-09-01T06:11:47.006Z,95288.75
2022-09-01T06:14:33.481Z,95306.53
2022-09-01T06:17:24.925Z,95300.88
2022-09-01T06:20:11.809Z,95295.66
2022-09-01T06:23:02.592Z,95279.34
2022-09-01T06:25:48.755Z,95302.59
2022-09-01T06:28:41.432Z,95298.25
2022-09-01T06:31:34.082Z,95301.31
2022-09-01T06:34:26.384Z,95269.13
2022-09-01T06:37:13.409Z,95287.97
2022-09-01T06:40:03.962Z,95276.59
2022-09-01T06:42:52.500Z,95276.88
2022-09-01T06:45:44.875Z,95278.00
2022-09-01T06:48:31.355Z,95274.78
2022-09-01T06:51:23.469Z,95282.94
2022-09-01T06:54:14.700Z,95279.19
2022-09-01T07:00:21.408Z,95283.28
2022-09-01T07:03:11.004Z,95283.88
2022-09-01T07:13:05.732Z,95276.53
2022-09-01T07:19:03.980Z,95281.22
2022-09-01T07:22:09.701Z,95284.78
2022-09-01T07:28:19.049Z,95271.72
2022-09-01T07:42:31.191Z,95284.16
2022-09-01T07:42:59.051Z,95259.69
2022-09-01T07:44:05.107Z,95268.22
2022-09-01T07:50:24.747Z,95270.44
2022-09-01T07:53:12.669Z,95267.97
2022-09-01T07:56:01.756Z,95272.88
2022-09-01T07:58:51.104Z,95266.88
2022-09-01T08:01:37.937Z,95283.22
2022-09-01T08:04:24.876Z,95274.78
2022-09-01T08:07:15.510Z,95263.59
2022-09-01T08:10:04.006Z,95262.50
2022-09-01T08:12:59.763Z,95250.75
2022-09-01T08:18:52.458Z,95273.66
2022-09-01T08:22:02.554Z,95271.75
2022-09-01T08:24:59.542Z,95256.97
2022-09-01T08:27:46.121Z,95266.75
2022-09-01T08:30:35.713Z,95248.19
2022-09-01T08:33:22.689Z,95277.38
2022-09-01T08:36:11.104Z,95251.66
2022-09-01T08:38:57.246Z,95263.16
2022-09-01T08:41:53.364Z,95246.19
2022-09-01T08:44:57.279Z,95257.84
2022-09-01T08:48:04.741Z,95245.75
2022-09-01T08:50:59.833Z,95249.88
2022-09-01T08:54:11.770Z,95251.09
2022-09-01T08:57:02.411Z,95249.06
2022-09-01T09:00:12.677Z,95243.22
2022-09-01T10:13:45.453Z,95179.25
2022-09-01T10:16:32.629Z,95182.50
2022-09-01T10:19:19.917Z,95171.91
2022-09-01T10:22:06.027Z,95171.38
2022-09-01T10:24:52.216Z,95166.38
2022-09-01T10:27:40.966Z,95165.06
2022-09-01T10:30:28.345Z,95162.56
2022-09-01T10:33:20.863Z,95168.03
2022-09-01T10:36:08.317Z,95164.28
2022-09-01T10:38:58.937Z,95160.28
2022-09-01T10:42:00.763Z,95149.81
2022-09-01T10:44:57.755Z,95155.72
2022-09-01T10:47:44.298Z,95136.41
2022-09-01T10:50:35.448Z,95153.03
2022-09-01T10:53:34.065Z,95138.56
2022-09-01T10:56:44.321Z,95134.38
2022-09-01T10:59:32.812Z,95136.03
2022-09-01T11:02:27.739Z,95127.81
2022-09-01T11:05:17.034Z,95132.22
2022-09-01T11:08:24.642Z,95131.00
2022-09-01T11:11:25.952Z,95127.72
2022-09-01T11:14:22.143Z,95114.19
2022-09-01T11:17:21.528Z,95134.56
2022-09-01T11:20:10.697Z,95118.34
2022-09-01T11:23:22.140Z,95135.59
2022-09-01T11:26:45.892Z,95125.19
2022-09-01T11:29:55.586Z,95124.88
2022-09-01T11:32:46.844Z,95120.47
2022-09-01T11:35:33.617Z,95116.59
2022-09-01T11:38:20.426Z,95112.44
2022-09-01T11:41:06.729Z,95109.88
2022-09-01T11:43:57.991Z,95115.38
2022-09-01T11:46:45.383Z,95113.44
2022-09-01T11:49:38.041Z,95096.44
2022-09-01T11:52:26.621Z,95099.69
2022-09-01T11:55:12.772Z,95099.47
2022-09-01T11:57:58.833Z,95108.41
2022-09-01T12:00:44.785Z,95085.72
2022-09-01T12:03:31.037Z,95092.06
2022-09-01T12:06:35.489Z,95077.47
2022-09-01T12:09:21.912Z,95091.84
2022-09-01T12:12:27.416Z,95084.28
2022-09-01T12:15:25.410Z,95081.06
2022-09-01T12:18:22.044Z,95069.25
2022-09-01T12:21:09.580Z,95052.81
2022-09-01T12:24:12.271Z,95055.38
2022-09-01T12:26:59.108Z,95054.50
2022-09-01T12:29:45.240Z,95063.97
2022-09-01T12:32:31.488Z,95044.16
2022-09-01T12:35:22.228Z,95035.16
2022-09-01T12:38:21.013Z,95044.28
2022-09-01T12:41:28.957Z,95036.63
2022-09-01T12:44:35.205Z,95045.97
2022-09-01T12:47:33.558Z,95052.16
2022-09-01T12:50:19.716Z,95050.75
2022-09-01T12:53:15.495Z,95045.03
2022-09-01T12:56:15.306Z,95040.91
2022-09-01T12:59:15.876Z,95046.06
2022-09-01T13:02:36.796Z,95030.84
2022-09-01T13:05:41.831Z,95025.22
2022-09-01T13:08:33.794Z,95013.88
2022-09-01T13:11:21.709Z,95011.63
2022-09-01T13:14:08.512Z,95021.84
2022-09-01T13:16:54.763Z,95020.88
2022-09-01T13:19:41.181Z,95020.13
2022-09-01T13:22:27.325Z,95017.84
2022-09-01T13:25:16.287Z,95018.97
2022-09-01T13:28:02.870Z,95019.31
2022-09-01T13:34:22.517Z,95020.59
2022-09-01T13:37:09.533Z,95012.31
2022-09-01T13:39:55.695Z,95010.34
2022-09-01T13:42:49.982Z,95017.22
2022-09-01T13:45:36.544Z,95018.31
2022-09-01T13:48:23.688Z,95008.59
2022-09-01T13:51:15.583Z,94996.38
2022-09-01T13:54:03.882Z,94990.72
2022-09-01T13:56:52.405Z,95013.75
2022-09-01T13:59:39.019Z,95007.72
2022-09-01T14:02:26.352Z,95004.34
2022-09-01T14:05:12.267Z,94990.47
2022-09-01T14:07:59.542Z,94999.53
2022-09-01T14:10:49.015Z,94974.97
2022-09-01T14:13:35.935Z,94974.34
2022-09-01T14:16:22.257Z,94987.72
2022-09-01T14:19:08.446Z,94982.81
2022-09-01T14:21:54.709Z,94982.63
2022-09-01T14:24:41.048Z,94973.56
2022-09-01T14:27:27.016Z,94967.94
2022-09-01T14:30:20.873Z,94956.63
2022-09-01T14:33:07.854Z,94967.81
2022-09-01T14:35:54.397Z,94963.75
2022-09-01T14:38:40.751Z,94953.31
2022-09-01T14:41:27.961Z,94951.00
2022-09-01T14:44:14.486Z,94960.38
2022-09-01T14:47:01.402Z,94947.34
2022-09-01T14:49:47.297Z,94965.66
2022-09-01T14:52:33.529Z,94957.66
2022-09-01T14:55:21.230Z,94959.16
2022-09-01T14:58:07.464Z,94953.47
2022-09-01T15:01:03.516Z,94930.69
2022-09-01T15:03:54.474Z,94939.06
2022-09-01T15:06:40.306Z,94961.94
2022-09-01T15:09:26.359Z,94963.03
2022-09-01T15:12:12.877Z,94978.22
2022-09-01T15:14:59.763Z,94959.91
2022-09-01T15:17:46.585Z,94953.50
2022-09-01T15:20:48.652Z,94950.59
2022-09-01T15:23:35.271Z,94986.91
2022-09-01T15:26:21.828Z,95008.72
2022-09-01T15:29:13.235Z,95002.16
2022-09-01T15:31:59.407Z,95023.59
2022-09-01T15:34:45.460Z,95072.41
2022-09-01T15:37:35.079Z,95109.53
2022-09-01T15:40:23.018Z,95092.19
2022-09-01T15:43:09.446Z,95029.25
2022-09-01T15:45:58.467Z,95065.28
2022-09-01T15:48:44.956Z,95043.56
2022-09-01T15:51:32.791Z,95038.47
2022-09-01T15:54:20.150Z,95021.50
2022-09-01T15:57:06.402Z,95049.22
2022-09-01T15:59:55.143Z,95041.47
2022-09-01T16:02:41.109Z,95058.09
2022-09-01T16:05:27.871Z,95077.81
2022-09-01T16:08:14.320Z,95077.59
2022-09-01T16:11:02.528Z,95090.69
2022-09-01T16:13:50.607Z,95081.66
2022-09-01T16:16:42.323Z,95086.91
2022-09-01T16:19:38.274Z,95048.53
2022-09-01T16:22:30.849Z,95077.16
2022-09-01T16:25:25.894Z,95088.72
2022-09-01T16:28:21.069Z,95088.69
2022-09-01T16:31:15.522Z,95080.41
2022-09-01T16:34:10.300Z,95057.50
2022-09-01T16:37:25.673Z,95066.41
2022-09-01T16:40:30.124Z,95078.25
2022-09-01T16:43:50.181Z,95091.44
2022-09-01T16:46:46.637Z,95101.28
2022-09-01T16:49:37.933Z,95093.56
2022-09-01T16:52:29.527Z,95058.69
2022-09-01T16:55:48.146Z,95076.75
2022-09-01T16:58:45.253Z,95065.38
2022-09-01T17:01:43.301Z,95080.63
2022-09-01T17:04:35.523Z,95115.41
2022-09-01T17:07:39.690Z,95118.28
2022-09-01T17:10:45.290Z,95128.53
2022-09-01T17:13:32.608Z,95135.44
2022-09-01T17:16:37.351Z,95158.38
2022-09-01T17:19:24.134Z,95146.47
2022-09-01T17:22:14.946Z,95158.84
2022-09-01T17:25:10.065Z,95153.47
2022-09-01T17:28:07.986Z,95166.34
2022-09-01T17:30:59.545Z,95163.59
2022-09-01T17:33:48.578Z,95175.31
2022-09-01T17:36:49.656Z,95167.22
2022-09-01T17:39:59.760Z,95187.69
2022-09-01T17:43:02.638Z,95212.91
2022-09-01T17:45:51.577Z,95218.56
2022-09-01T17:48:43.998Z,95221.56
2022-09-01T17:51:58.295Z,95242.63
2022-09-01T17:54:44.151Z,95259.00
2022-09-01T17:57:40.250Z,95266.75
2022-09-01T18:00:29.028Z,95289.78
2022-09-01T18:03:38.518Z,95314.91
2022-09-01T18:06:45.230Z,95360.72
2022-09-01T18:09:35.913Z,95339.44
2022-09-01T18:12:35.715Z,95375.00
2022-09-01T18:15:23.180Z,95381.50
2022-09-01T18:18:37.961Z,95360.19
2022-09-01T18:21:27.085Z,95360.75
2022-09-01T18:24:40.218Z,95314.66
2022-09-01T18:27:30.040Z,95325.06
2022-09-01T18:30:36.329Z,95327.25
2022-09-01T18:33:30.461Z,95320.72
2022-09-01T18:36:41.371Z,95340.38
2022-09-01T18:40:04.852Z,95337.41
2022-09-01T18:42:57.207Z,95309.06
2022-09-01T18:45:54.900Z,95322.56
2022-09-01T18:49:00.170Z,95306.97
2022-09-01T18:51:56.817Z,95301.25
2022-09-01T18:55:31.100Z,95311.16
2022-09-01T18:58:20.415Z,95305.75
2022-09-01T19:01:09.734Z,95310.00
2022-09-01T19:04:11.418Z,95302.59
2022-09-01T19:07:12.127Z,95303.94
2022-09-01T19:10:18.614Z,95306.22
2022-09-01T19:13:14.796Z,95298.75
2022-09-01T19:16:27.467Z,95302.00
2022-09-01T19:19:29.938Z,95323.00
2022-09-01T19:22:26.919Z,95330.94
2022-09-01T19:25:38.292Z,95328.81
2022-09-01T19:29:03.004Z,95325.16
2022-09-01T19:31:53.214Z,95337.78
2022-09-01T19:34:46.278Z,95336.75
2022-09-01T19:37:32.598Z,95345.91
2022-09-01T19:40:24.903Z,95335.50
2022-09-01T19:43:17.757Z,95340.84
2022-09-01T19:46:15.830Z,95342.47
2022-09-01T19:49:20.353Z,95328.53
2022-09-01T19:52:19.269Z,95330.22
2022-09-01T19:55:23.162Z,95328.66
2022-09-01T19:58:33.062Z,95330.56
2022-09-01T20:01:40.126Z,95334.56
2022-09-01T20:04:55.665Z,95323.72
2022-09-01T20:07:54.261Z,95329.41
2022-09-01T20:10:49.753Z,95332.63
2022-09-01T20:13:51.628Z,95330.88
2022-09-01T20:16:44.002Z,95321.44
2022-09-01T20:19:30.367Z,95320.03
2022-09-01T20:22:31.169Z,95323.31
2022-09-01T20:25:20.733Z,95317.84
2022-09-01T20:28:39.276Z,95316.47
2022-09-01T20:31:33.387Z,95321.28
2022-09-01T20:34:42.819Z,95348.25
2022-09-01T20:37:43.459Z,95341.59
2022-09-01T20:40:38.225Z,95343.78
2022-09-01T20:43:28.459Z,95327.97
2022-09-01T20:46:19.432Z,95340.38
2022-09-01T20:49:05.839Z,95324.56
2022-09-01T20:52:03.433Z,95349.63
2022-09-01T20:54:56.932Z,95340.47
2022-09-01T20:58:07.817Z,95333.66
2022-09-01T21:01:05.079Z,95347.44
2022-09-01T21:04:18.811Z,95347.00
2022-09-01T21:07:30.662Z,95337.53
2022-09-01T21:10:41.192Z,95349.06
2022-09-01T21:13:56.968Z,95325.56
2022-09-01T21:16:55.015Z,95335.47
2022-09-01T21:19:59.717Z,95337.44
2022-09-01T21:22:45.829Z,95338.25
2022-09-01T21:25:31.762Z,95335.78
2022-09-01T21:28:20.096Z,95340.72
2022-09-01T21:31:07.069Z,95340.22
2022-09-01T21:33:53.561Z,95330.06
2022-09-01T21:36:39.322Z,95333.13
2022-09-01T21:39:25.324Z,95330.91
2022-09-01T21:42:12.545Z,95330.91
2022-09-01T21:44:59.038Z,95324.38
2022-09-01T21:47:47.196Z,95323.56
2022-09-01T21:50:33.485Z,95335.00
2022-09-01T21:53:19.496Z,95321.91
2022-09-01T21:56:05.394Z,95341.03
2022-09-01T21:58:51.453Z,95334.22
2022-09-01T22:01:37.758Z,95320.59
2022-09-01T22:04:24.411Z,95318.94
2022-09-01T22:07:15.270Z,95337.56
2022-09-01T22:10:01.080Z,95321.22
2022-09-01T22:12:49.094Z,95326.16
2022-09-01T22:15:35.254Z,95318.25
2022-09-01T22:18:22.369Z,95323.19
2022-09-01T22:21:09.763Z,95311.47
2022-09-01T22:23:56.275Z,95321.81
2022-09-01T22:26:42.383Z,95322.94
2022-09-01T22:29:28.248Z,95322.13
2022-09-01T22:32:14.142Z,95328.34
2022-09-01T22:35:02.414Z,95321.50
2022-09-01T22:37:48.685Z,95329.75
2022-09-01T22:40:35.497Z,95337.63
2022-09-01T22:43:23.164Z,95323.97
2022-09-01T22:46:09.924Z,95346.34
2022-09-01T22:48:57.718Z,95347.75
2022-09-01T22:51:44.219Z,95336.78
2022-09-01T22:54:30.478Z,95338.16
2022-09-01T22:57:17.028Z,95353.47
2022-09-01T23:00:07.905Z,95362.97
2022-09-01T23:02:54.080Z,95362.47
2022-09-01T23:05:39.879Z,95360.84
2022-09-01T23:08:25.792Z,95342.84
2022-09-01T23:11:12.571Z,95356.22
2022-09-01T23:13:58.905Z,95366.81
2022-09-01T23:16:45.947Z,95354.03
2022-09-01T23:19:31.896Z,95349.69
2022-09-01T23:22:17.966Z,95351.59
2022-09-01T23:25:05.098Z,95336.88
2022-09-01T23:27:51.304Z,95327.56
2022-09-01T23:30:38.363Z,95346.66
2022-09-01T23:33:25.817Z,95335.75
2022-09-01T23:36:13.964Z,95339.31
2022-09-01T23:39:00.817Z,95329.78
2022-09-01T23:41:47.036Z,95329.50
2022-09-01T23:44:33.081Z,95318.31
2022-09-01T23:47:19.671Z,95313.16
2022-09-01T23:50:06.865Z,95327.88
2022-09-01T23:52:52.678Z,95312.84
2022-09-01T23:55:45.668Z,95291.81
2022-09-01T23:58:32.467Z,95288.56
